createdAt,value
2018-04-08T00:00:51.187Z,29.87
2018-04-08T00:03:20.703Z,32.13
2018-04-08T00:05:49.441Z,30.43
2018-04-08T00:08:18.248Z,31.03
2018-04-08T00:10:47.175Z,29.27
2018-04-08T00:13:15.910Z,32.83
2018-04-08T00:15:44.618Z,32.97
2018-04-08T00:18:13.540Z,33.93
2018-04-08T00:20:42.286Z,34.20
2018-04-08T00:23:10.974Z,36.10
2018-04-08T00:25:39.602Z,38.20
2018-04-08T00:28:08.531Z,34.43
2018-04-08T00:30:37.433Z,36.50
2018-04-08T00:33:06.268Z,33.73
2018-04-08T00:35:34.898Z,32.33
2018-04-08T00:38:03.713Z,31.93
2018-04-08T00:40:34.226Z,30.77
2018-04-08T00:43:03.064Z,29.00
2018-04-08T00:45:31.886Z,29.40
2018-04-08T00:48:01.853Z,32.57
2018-04-08T00:50:30.534Z,33.43
2018-04-08T00:52:59.581Z,34.33
2018-04-08T00:55:28.377Z,32.73
2018-04-08T00:57:56.870Z,33.17
2018-04-08T01:00:26.525Z,34.87
2018-04-08T01:02:55.047Z,32.03
2018-04-08T01:05:23.566Z,34.93
2018-04-08T01:07:51.989Z,33.67
2018-04-08T01:10:20.515Z,35.60
2018-04-08T01:12:49.030Z,34.43
2018-04-08T01:15:17.651Z,34.17
2018-04-08T01:17:46.274Z,31.00
2018-04-08T01:20:15.099Z,28.63
2018-04-08T01:22:43.930Z,26.43
2018-04-08T01:25:12.660Z,26.20
2018-04-08T01:27:41.344Z,24.03
2018-04-08T01:30:10.237Z,23.33
2018-04-08T01:32:38.921Z,27.27
2018-04-08T01:35:07.855Z,22.87
2018-04-08T01:37:36.751Z,24.43
2018-04-08T01:40:05.572Z,22.47
2018-04-08T01:42:34.214Z,24.07
2018-04-08T01:45:03.017Z,22.70
2018-04-08T01:47:31.661Z,24.87
2018-04-08T01:50:00.375Z,24.50
2018-04-08T01:52:29.181Z,25.80
2018-04-08T01:54:58.628Z,23.77
2018-04-08T01:57:27.331Z,22.57
2018-04-08T01:59:56.133Z,24.97
2018-04-08T02:02:24.771Z,23.50
2018-04-08T02:04:53.596Z,23.37
2018-04-08T02:07:22.323Z,25.10
2018-04-08T02:09:50.899Z,22.60
2018-04-08T02:12:19.561Z,23.03
2018-04-08T02:14:48.268Z,21.73
2018-04-08T02:17:17.003Z,22.47
2018-04-08T02:19:45.926Z,23.53
2018-04-08T02:22:14.550Z,26.17
2018-04-08T02:24:43.136Z,25.67
2018-04-08T02:27:11.995Z,24.80
2018-04-08T02:29:40.817Z,25.33
2018-04-08T02:32:09.464Z,23.23
2018-04-08T02:34:38.258Z,25.90
2018-04-08T02:37:07.582Z,24.13
2018-04-08T02:39:36.402Z,25.03
2018-04-08T02:42:05.225Z,22.60
2018-04-08T02:44:33.864Z,24.23
2018-04-08T02:47:02.680Z,25.50
2018-04-08T02:49:31.241Z,23.13
2018-04-08T02:51:59.845Z,24.87
2018-04-08T02:54:28.445Z,26.40
2018-04-08T02:56:57.057Z,25.47
2018-04-08T02:59:25.678Z,25.33
2018-04-08T03:01:54.185Z,24.27
2018-04-08T03:04:22.784Z,23.77
2018-04-08T03:06:51.320Z,25.23
2018-04-08T03:09:19.901Z,25.47
2018-04-08T03:11:48.480Z,25.70
2018-04-08T03:14:18.816Z,25.27
2018-04-08T03:16:47.402Z,27.40
2018-04-08T03:19:15.988Z,27.93
2018-04-08T03:21:44.531Z,26.47
2018-04-08T03:24:13.206Z,28.27
2018-04-08T03:26:41.787Z,26.47
2018-04-08T03:29:10.392Z,28.53
2018-04-08T03:31:38.964Z,29.17
2018-04-08T03:34:07.649Z,28.70
2018-04-08T03:36:36.231Z,27.87
2018-04-08T03:39:04.880Z,31.63
2018-04-08T03:41:33.483Z,30.37
2018-04-08T03:44:02.016Z,31.17
2018-04-08T03:46:30.590Z,29.57
2018-04-08T03:48:59.314Z,30.20
2018-04-08T03:51:28.134Z,29.97
2018-04-08T03:53:56.859Z,29.17
2018-04-08T03:56:25.475Z,28.40
2018-04-08T03:58:54.200Z,26.83
2018-04-08T04:01:22.926Z,28.20
2018-04-08T04:03:51.503Z,28.17
2018-04-08T04:06:20.114Z,27.20
2018-04-08T04:08:49.695Z,28.53
2018-04-08T04:11:18.320Z,27.83
2018-04-08T04:13:47.030Z,27.10
2018-04-08T04:16:15.589Z,26.70
2018-04-08T04:18:55.828Z,27.00
2018-04-08T04:21:36.179Z,27.00
2018-04-08T04:24:16.548Z,27.63
2018-04-08T04:26:45.216Z,27.70
2018-04-08T04:29:13.890Z,25.83
2018-04-08T04:31:42.506Z,25.57
2018-04-08T04:34:11.089Z,26.63
2018-04-08T04:36:39.655Z,23.90
2018-04-08T04:39:08.291Z,24.37
2018-04-08T04:41:37.595Z,24.73
2018-04-08T04:44:06.164Z,25.40
2018-04-08T04:46:34.701Z,22.93
2018-04-08T04:49:03.417Z,20.87
2018-04-08T04:51:31.967Z,21.97
2018-04-08T04:54:00.702Z,20.77
2018-04-08T04:56:29.369Z,20.43
2018-04-08T04:58:57.962Z,19.10
2018-04-08T05:01:26.578Z,19.10
2018-04-08T05:03:55.189Z,17.80
2018-04-08T05:06:23.775Z,18.80
2018-04-08T05:08:52.436Z,18.30
2018-04-08T05:11:20.958Z,16.87
2018-04-08T05:13:50.077Z,22.40
2018-04-08T05:16:18.703Z,16.63
2018-04-08T05:18:47.289Z,15.57
2018-04-08T05:21:16.040Z,17.10
2018-04-08T05:23:44.672Z,21.00
2018-04-08T05:26:13.282Z,18.83
2018-04-08T05:28:41.855Z,17.17
2018-04-08T05:31:10.411Z,19.03
2018-04-08T05:33:38.951Z,17.77
2018-04-08T05:36:07.566Z,18.40
2018-04-08T05:38:36.159Z,16.73
2018-04-08T05:41:04.742Z,16.30
2018-04-08T05:43:33.292Z,16.23
2018-04-08T05:46:01.866Z,17.73
2018-04-08T05:48:30.545Z,17.60
2018-04-08T05:50:59.267Z,17.47
2018-04-08T05:53:27.929Z,16.70
2018-04-08T05:55:56.499Z,18.53
2018-04-08T05:58:25.062Z,17.97
2018-04-08T06:00:53.683Z,19.00
2018-04-08T06:03:22.311Z,18.10
2018-04-08T06:05:51.026Z,18.93
2018-04-08T06:08:19.646Z,18.67
2018-04-08T06:10:48.269Z,18.00
2018-04-08T06:13:16.967Z,19.07
2018-04-08T06:15:45.507Z,18.70
2018-04-08T06:18:14.333Z,17.23
2018-04-08T06:20:42.952Z,15.87
2018-04-08T06:23:11.485Z,16.00
2018-04-08T06:25:40.099Z,13.73
2018-04-08T06:28:08.822Z,14.83
2018-04-08T06:30:37.641Z,14.30
2018-04-08T06:33:06.201Z,14.80
2018-04-08T06:35:35.186Z,14.87
2018-04-08T06:38:03.910Z,15.10
2018-04-08T06:40:32.534Z,13.53
2018-04-08T06:43:01.259Z,14.50
2018-04-08T06:45:29.792Z,14.60
2018-04-08T06:47:58.433Z,15.43
2018-04-08T06:50:27.119Z,15.67
2018-04-08T06:52:55.741Z,15.20
2018-04-08T06:55:24.358Z,15.30
2018-04-08T06:57:53.079Z,14.77
2018-04-08T07:00:21.912Z,13.30
2018-04-08T07:02:50.534Z,11.63
2018-04-08T07:05:19.142Z,15.27
2018-04-08T07:07:47.738Z,15.03
2018-04-08T07:10:16.363Z,14.63
2018-04-08T07:12:45.011Z,14.93
2018-04-08T07:15:13.628Z,17.33
2018-04-08T07:17:42.177Z,15.30
2018-04-08T07:20:10.822Z,16.93
2018-04-08T07:22:39.352Z,17.27
2018-04-08T07:25:07.966Z,17.07
2018-04-08T07:27:36.599Z,15.77
2018-04-08T07:30:05.987Z,16.77
2018-04-08T07:32:34.513Z,15.60
2018-04-08T07:35:03.137Z,16.03
2018-04-08T07:37:32.763Z,15.50
2018-04-08T07:40:01.322Z,14.30
2018-04-08T07:42:29.978Z,14.43
2018-04-08T07:44:58.517Z,14.20
2018-04-08T07:47:27.119Z,15.40
2018-04-08T07:49:55.754Z,13.67
2018-04-08T07:52:24.299Z,15.33
2018-04-08T07:54:52.848Z,15.23
2018-04-08T07:57:21.362Z,15.50
2018-04-08T07:59:50.033Z,17.37
2018-04-08T08:02:18.751Z,16.73
2018-04-08T08:04:47.282Z,16.17
2018-04-08T08:07:15.896Z,16.90
2018-04-08T08:09:44.464Z,16.47
2018-04-08T08:12:14.032Z,16.57
2018-04-08T08:14:42.656Z,18.93
2018-04-08T08:17:11.222Z,19.17
2018-04-08T08:19:39.918Z,18.00
2018-04-08T08:22:11.155Z,21.23
2018-04-08T08:24:39.850Z,17.27
2018-04-08T08:27:08.471Z,16.60
2018-04-08T08:29:36.988Z,18.07
2018-04-08T08:32:05.613Z,18.70
2018-04-08T08:34:34.236Z,17.20
2018-04-08T08:37:02.856Z,17.13
2018-04-08T08:39:31.380Z,16.97
2018-04-08T08:42:00.038Z,16.23
2018-04-08T08:44:28.575Z,16.13
2018-04-08T08:46:57.153Z,15.33
2018-04-08T08:49:26.418Z,15.47
2018-04-08T08:51:55.129Z,12.93
2018-04-08T08:54:23.662Z,11.73
2018-04-08T08:56:52.230Z,10.87
2018-04-08T08:59:20.803Z,10.33
2018-04-08T09:01:49.328Z,10.63
2018-04-08T09:04:17.883Z,11.53
2018-04-08T09:06:46.628Z,12.40
2018-04-08T09:09:15.249Z,11.73
2018-04-08T09:11:43.818Z,16.40
2018-04-08T09:14:12.373Z,12.63
2018-04-08T09:16:41.172Z,12.10
2018-04-08T09:22:27.016Z,9.80
2018-04-08T09:24:56.524Z,9.37
2018-04-08T09:27:25.261Z,8.60
2018-04-08T09:29:53.955Z,10.00
2018-04-08T09:32:22.532Z,7.20
2018-04-08T09:34:51.160Z,6.50
2018-04-08T09:37:19.714Z,7.67
2018-04-08T09:39:48.274Z,7.37
2018-04-08T09:42:16.868Z,6.70
2018-04-08T09:44:45.453Z,10.80
2018-04-08T09:47:13.969Z,7.90
2018-04-08T09:49:42.513Z,7.40
2018-04-08T09:52:11.047Z,7.07
2018-04-08T09:54:39.598Z,7.63
2018-04-08T09:57:08.992Z,7.07
2018-04-08T09:59:37.592Z,7.10
2018-04-08T10:02:08.518Z,6.40
2018-04-08T10:04:37.106Z,6.00
2018-04-08T10:07:05.716Z,6.17
2018-04-08T10:09:34.263Z,7.20
2018-04-08T10:12:03.646Z,7.43
2018-04-08T10:14:33.000Z,7.00
2018-04-08T10:17:02.542Z,6.93
2018-04-08T10:19:31.138Z,6.60
2018-04-08T10:21:59.707Z,6.60
2018-04-08T10:24:28.391Z,6.90
2018-04-08T10:26:57.101Z,8.53
2018-04-08T10:29:25.746Z,8.73
2018-04-08T10:31:55.043Z,6.03
2018-04-08T10:34:23.543Z,5.83
2018-04-08T10:36:52.186Z,5.97
2018-04-08T10:39:20.811Z,6.37
2018-04-08T10:41:49.341Z,6.00
2018-04-08T10:44:17.917Z,7.07
2018-04-08T10:46:46.669Z,6.80
2018-04-08T10:49:15.193Z,6.33
2018-04-08T10:51:44.023Z,7.70
2018-04-08T10:54:12.539Z,6.97
2018-04-08T10:56:41.118Z,7.17
2018-04-08T10:59:09.627Z,7.13
2018-04-08T11:01:38.212Z,7.33
2018-04-08T11:04:06.818Z,7.43
2018-04-08T11:06:35.366Z,7.47
2018-04-08T11:09:04.053Z,7.93
2018-04-08T11:11:32.637Z,6.57
2018-04-08T11:14:01.244Z,6.27
2018-04-08T11:16:29.806Z,5.00
2018-04-08T11:18:59.140Z,5.00
2018-04-08T11:21:27.871Z,3.30
2018-04-08T11:23:56.498Z,3.70
2018-04-08T11:26:25.120Z,5.03
2018-04-08T11:28:53.682Z,4.20
2018-04-08T11:31:22.269Z,4.37
2018-04-08T11:33:50.886Z,3.60
2018-04-08T11:36:19.446Z,3.40
2018-04-08T11:38:48.224Z,3.73
2018-04-08T11:41:16.796Z,4.37
2018-04-08T11:43:45.634Z,3.90
2018-04-08T11:46:14.387Z,4.00
2018-04-08T11:48:42.895Z,3.33
2018-04-08T11:51:11.442Z,3.97
2018-04-08T11:53:40.059Z,3.93
2018-04-08T11:56:08.673Z,3.53
2018-04-08T11:58:37.496Z,3.70
2018-04-08T12:01:06.072Z,4.20
2018-04-08T12:03:34.752Z,3.73
2018-04-08T12:06:03.368Z,3.70
2018-04-08T12:08:31.942Z,3.50
2018-04-08T12:11:00.551Z,3.43
2018-04-08T12:13:29.241Z,3.70
2018-04-08T12:15:57.852Z,4.20
2018-04-08T12:18:26.440Z,3.37
2018-04-08T12:20:55.192Z,3.50
2018-04-08T12:23:23.773Z,3.23
2018-04-08T12:25:52.404Z,3.30
2018-04-08T12:28:21.054Z,3.17
2018-04-08T12:30:49.648Z,2.87
2018-04-08T12:33:18.297Z,2.97
2018-04-08T12:35:46.919Z,3.07
2018-04-08T12:38:15.900Z,2.53
2018-04-08T12:40:44.509Z,3.00
2018-04-08T12:43:13.087Z,3.33
2018-04-08T12:45:41.806Z,3.03
2018-04-08T12:48:10.334Z,3.10
2018-04-08T12:50:38.911Z,3.23
2018-04-08T12:53:07.531Z,2.97
2018-04-08T12:55:36.045Z,3.10
2018-04-08T12:58:04.714Z,2.67
2018-04-08T13:00:33.380Z,4.13
2018-04-08T13:03:01.981Z,3.73
2018-04-08T13:05:30.492Z,3.80
2018-04-08T13:07:59.054Z,3.00
2018-04-08T13:10:27.665Z,3.13
2018-04-08T13:12:56.940Z,3.53
2018-04-08T13:15:25.535Z,3.10
2018-04-08T13:17:54.176Z,3.27
2018-04-08T13:20:22.757Z,2.80
2018-04-08T13:22:51.358Z,3.13
2018-04-08T13:25:19.899Z,2.43
2018-04-08T13:27:48.520Z,3.17
2018-04-08T13:30:17.128Z,3.20
2018-04-08T13:32:45.855Z,2.60
2018-04-08T13:35:14.415Z,2.63
2018-04-08T13:37:42.983Z,2.80
2018-04-08T13:40:11.523Z,2.83
2018-04-08T13:42:40.143Z,2.73
2018-04-08T13:45:08.790Z,3.37
2018-04-08T13:47:37.305Z,3.20
2018-04-08T13:50:05.971Z,3.10
2018-04-08T13:52:35.124Z,3.00
2018-04-08T13:55:03.808Z,3.17
2018-04-08T13:57:32.472Z,3.00
2018-04-08T14:00:01.087Z,3.03
2018-04-08T14:02:29.657Z,3.57
2018-04-08T14:04:58.218Z,2.73
2018-04-08T14:07:26.729Z,2.67
2018-04-08T14:09:55.261Z,3.13
2018-04-08T14:12:23.910Z,3.03
2018-04-08T14:14:52.590Z,2.87
2018-04-08T14:17:21.205Z,2.70
2018-04-08T14:19:49.714Z,2.73
2018-04-08T14:22:18.258Z,3.00
2018-04-08T14:24:46.756Z,2.80
2018-04-08T14:27:15.336Z,3.30
2018-04-08T14:29:43.965Z,2.77
2018-04-08T14:32:12.673Z,2.50
2018-04-08T14:34:41.237Z,2.87
2018-04-08T14:37:09.855Z,2.60
2018-04-08T14:39:38.355Z,2.23
2018-04-08T14:42:06.931Z,2.60
2018-04-08T14:44:35.579Z,2.50
2018-04-08T14:47:04.315Z,2.80
2018-04-08T14:49:54.397Z,2.13
2018-04-08T14:52:23.119Z,2.63
2018-04-08T14:54:51.809Z,2.63
2018-04-08T14:57:20.620Z,2.60
2018-04-08T14:59:49.370Z,2.60
2018-04-08T15:02:18.141Z,1.93
2018-04-08T15:04:46.847Z,1.80
2018-04-08T15:07:15.652Z,1.90
2018-04-08T15:09:44.373Z,2.13
2018-04-08T15:12:13.178Z,1.80
2018-04-08T15:14:41.916Z,1.90
2018-04-08T15:17:10.739Z,2.50
2018-04-08T15:19:39.429Z,1.83
2018-04-08T15:22:08.183Z,2.07
2018-04-08T15:24:36.741Z,2.43
2018-04-08T15:27:05.525Z,2.53
2018-04-08T15:29:34.250Z,2.40
2018-04-08T15:32:02.870Z,1.93
2018-04-08T15:34:31.590Z,2.50
2018-04-08T15:37:01.017Z,2.10
2018-04-08T15:39:29.738Z,2.10
2018-04-08T15:41:58.482Z,2.70
2018-04-08T15:44:27.180Z,2.23
2018-04-08T15:46:55.904Z,2.13
2018-04-08T15:49:24.728Z,2.50
2018-04-08T15:51:53.448Z,2.30
2018-04-08T15:54:22.068Z,2.53
2018-04-08T15:56:50.791Z,2.10
2018-04-08T15:59:19.463Z,2.27
2018-04-08T16:01:48.237Z,2.80
2018-04-08T16:04:16.936Z,2.73
2018-04-08T16:06:45.677Z,2.80
2018-04-08T16:09:14.327Z,3.00
2018-04-08T16:11:43.121Z,3.23
2018-04-08T16:14:13.509Z,2.97
2018-04-08T16:16:42.181Z,2.67
2018-04-08T16:19:10.892Z,2.70
2018-04-08T16:21:39.512Z,2.60
2018-04-08T16:24:08.237Z,2.40
2018-04-08T16:26:37.768Z,2.83
2018-04-08T16:29:06.581Z,2.60
2018-04-08T16:31:35.211Z,2.63
2018-04-08T16:34:03.932Z,3.07
2018-04-08T16:36:34.190Z,4.77
2018-04-08T16:39:02.902Z,4.50
2018-04-08T16:41:31.695Z,4.50
2018-04-08T16:44:00.419Z,4.80
2018-04-08T16:46:29.053Z,6.07
2018-04-08T16:48:57.864Z,6.40
2018-04-08T16:51:26.584Z,4.27
2018-04-08T16:53:55.215Z,4.57
2018-04-08T16:56:23.837Z,4.50
2018-04-08T16:58:52.587Z,4.73
2018-04-08T17:01:21.374Z,4.00
2018-04-08T17:03:50.093Z,3.80
2018-04-08T17:06:18.817Z,3.60
2018-04-08T17:08:48.039Z,3.73
2018-04-08T17:11:16.676Z,3.63
2018-04-08T17:13:45.409Z,3.27
2018-04-08T17:16:14.205Z,3.73
2018-04-08T17:18:42.830Z,3.33
2018-04-08T17:21:11.648Z,4.10
2018-04-08T17:23:40.370Z,3.97
2018-04-08T17:26:09.292Z,4.67
2018-04-08T17:28:38.030Z,4.77
2018-04-08T17:31:06.646Z,4.57
2018-04-08T17:33:35.461Z,4.83
2018-04-08T17:36:04.079Z,5.47
2018-04-08T17:38:32.882Z,5.63
2018-04-08T17:41:01.523Z,4.77
2018-04-08T17:43:30.347Z,5.17
2018-04-08T17:45:59.668Z,4.97
2018-04-08T17:48:28.306Z,5.53
2018-04-08T17:50:56.990Z,5.97
2018-04-08T17:53:25.710Z,6.77
2018-04-08T17:55:54.356Z,6.83
2018-04-08T17:58:23.078Z,8.23
2018-04-08T18:00:51.812Z,6.43
2018-04-08T18:03:20.625Z,9.53
2018-04-08T18:05:49.283Z,9.23
2018-04-08T18:08:18.070Z,9.50
2018-04-08T18:10:46.754Z,10.93
2018-04-08T18:13:15.427Z,11.80
2018-04-08T18:15:44.132Z,12.43
2018-04-08T18:18:12.755Z,13.13
2018-04-08T18:20:41.578Z,9.30
2018-04-08T18:23:11.000Z,8.17
2018-04-08T18:25:39.722Z,8.63
2018-04-08T18:28:08.342Z,7.30
2018-04-08T18:30:36.985Z,7.60
2018-04-08T18:33:05.688Z,6.53
2018-04-08T18:35:34.309Z,6.70
2018-04-08T18:38:02.885Z,7.87
2018-04-08T18:40:31.651Z,7.07
2018-04-08T18:43:00.446Z,7.20
2018-04-08T18:45:29.236Z,7.60
2018-04-08T18:47:57.824Z,7.97
2018-04-08T18:50:26.640Z,7.93
2018-04-08T18:52:55.362Z,8.53
2018-04-08T18:55:24.083Z,8.03
2018-04-08T18:57:52.681Z,8.57
2018-04-08T19:00:21.327Z,9.03
2018-04-08T19:02:50.049Z,9.03
2018-04-08T19:05:18.685Z,9.47
2018-04-08T19:07:47.389Z,8.63
2018-04-08T19:10:16.213Z,8.40
2018-04-08T19:12:44.906Z,9.40
2018-04-08T19:15:21.288Z,8.73
2018-04-08T19:17:55.426Z,9.40
2018-04-08T19:20:24.146Z,8.30
2018-04-08T19:22:52.770Z,9.73
2018-04-08T19:25:21.401Z,10.13
2018-04-08T19:27:50.031Z,11.33
2018-04-08T19:30:21.548Z,12.90
2018-04-08T19:32:50.261Z,13.10
2018-04-08T19:35:18.803Z,13.43
2018-04-08T19:37:48.213Z,15.50
2018-04-08T19:40:16.933Z,14.73
2018-04-08T19:42:45.753Z,14.03
2018-04-08T19:45:14.476Z,15.27
2018-04-08T19:47:43.121Z,12.20
2018-04-08T19:50:12.020Z,11.53
2018-04-08T19:52:40.762Z,11.37
2018-04-08T19:55:09.481Z,10.17
2018-04-08T19:57:38.120Z,9.70
2018-04-08T20:00:06.870Z,8.67
2018-04-08T20:02:35.435Z,9.40
2018-04-08T20:05:04.252Z,10.77
2018-04-08T20:07:32.975Z,9.90
2018-04-08T20:10:01.592Z,10.27
2018-04-08T20:12:30.419Z,11.90
2018-04-08T20:14:59.222Z,11.83
2018-04-08T20:17:27.867Z,12.93
2018-04-08T20:19:56.780Z,11.87
2018-04-08T20:22:25.505Z,11.33
2018-04-08T20:24:54.228Z,11.73
2018-04-08T20:27:22.849Z,12.43
2018-04-08T20:29:51.574Z,11.90
2018-04-08T20:32:20.293Z,11.90
2018-04-08T20:34:49.014Z,11.73
2018-04-08T20:37:17.634Z,14.33
2018-04-08T20:39:46.263Z,12.30
2018-04-08T20:42:14.989Z,11.63
2018-04-08T20:44:43.832Z,11.63
2018-04-08T20:47:12.424Z,11.43
2018-04-08T20:49:41.155Z,11.57
2018-04-08T20:52:09.783Z,11.83
2018-04-08T20:54:38.498Z,11.03
2018-04-08T20:57:07.121Z,11.50
2018-04-08T20:59:35.930Z,13.07
2018-04-08T21:02:04.652Z,12.43
2018-04-08T21:04:34.079Z,12.93
2018-04-08T21:07:02.774Z,10.70
2018-04-08T21:09:31.522Z,10.97
2018-04-08T21:12:00.243Z,9.63
2018-04-08T21:14:28.923Z,8.63
2018-04-08T21:16:57.566Z,10.83
2018-04-08T21:19:26.310Z,11.43
2018-04-08T21:21:55.132Z,10.50
2018-04-08T21:24:23.859Z,10.17
2018-04-08T21:26:52.674Z,10.10
2018-04-08T21:29:21.307Z,9.70
2018-04-08T21:31:50.020Z,11.40
2018-04-08T21:34:18.951Z,11.90
2018-04-08T21:36:47.762Z,10.33
2018-04-08T21:39:16.398Z,9.30
2018-04-08T21:41:45.105Z,9.40
2018-04-08T21:44:13.825Z,9.63
2018-04-08T21:46:42.551Z,10.27
2018-04-08T21:49:11.337Z,12.03
2018-04-08T21:51:40.913Z,11.40
2018-04-08T21:54:11.625Z,11.07
2018-04-08T21:56:40.860Z,11.80
2018-04-08T21:59:10.308Z,10.33
2018-04-08T22:01:39.096Z,10.87
2018-04-08T22:04:07.816Z,10.60
2018-04-08T22:06:36.538Z,10.50
2018-04-08T22:09:05.262Z,11.83
2018-04-08T22:14:07.679Z,15.00
2018-04-08T22:16:36.419Z,13.40
2018-04-08T22:19:05.769Z,10.73
2018-04-08T22:21:34.402Z,11.77
2018-04-08T22:24:03.213Z,11.90
2018-04-08T22:26:32.112Z,11.30
2018-04-08T22:29:00.679Z,11.50
2018-04-08T22:31:29.343Z,10.73
2018-04-08T22:33:58.007Z,11.30
2018-04-08T22:36:26.922Z,11.63
2018-04-08T22:38:55.645Z,10.73
2018-04-08T22:41:24.335Z,11.30
2018-04-08T22:43:53.007Z,11.33
2018-04-08T22:46:21.610Z,11.27
2018-04-08T22:48:50.330Z,9.87
2018-04-08T22:51:19.051Z,10.40
2018-04-08T22:53:47.775Z,9.90
2018-04-08T22:56:16.495Z,9.40
2018-04-08T22:58:45.204Z,10.27
2018-04-08T23:01:13.940Z,9.67
2018-04-08T23:03:43.437Z,9.50
2018-04-08T23:06:12.136Z,9.73
2018-04-08T23:08:41.442Z,8.03
2018-04-08T23:11:10.231Z,9.00
2018-04-08T23:13:39.056Z,8.93
2018-04-08T23:16:07.775Z,9.37
2018-04-08T23:18:36.569Z,9.27
2018-04-08T23:21:05.323Z,9.77
2018-04-08T23:23:34.055Z,12.50
2018-04-08T23:26:02.764Z,9.50
2018-04-08T23:28:31.490Z,9.33
2018-04-08T23:31:00.208Z,10.07
2018-04-08T23:33:28.935Z,9.57
2018-04-08T23:35:57.753Z,10.53
2018-04-08T23:38:26.475Z,10.47
2018-04-08T23:40:55.195Z,9.63
2018-04-08T23:43:23.922Z,9.80
2018-04-08T23:45:53.246Z,9.80
2018-04-08T23:48:21.940Z,10.30
2018-04-08T23:50:50.695Z,9.60
2018-04-08T23:53:19.407Z,9.80
2018-04-08T23:55:48.042Z,8.40
2018-04-08T23:58:16.830Z,9.10
